sensor_id;sensor_type;location;lat;lon;timestamp;P1;durP1;ratioP1;P2;durP2;ratioP2
46753;SDS011;32500;50.620;3.400;2023-02-15T00:00:53;78.85;;;59.35;;
46753;SDS011;32500;50.620;3.400;2023-02-15T00:03:20;81.72;;;61.50;;
46753;SDS011;32500;50.620;3.400;2023-02-15T00:05:46;81.43;;;60.15;;
46753;SDS011;32500;50.620;3.400;2023-02-15T00:08:12;76.70;;;59.10;;
46753;SDS011;32500;50.620;3.400;2023-02-15T00:10:37;79.90;;;60.40;;
46753;SDS011;32500;50.620;3.400;2023-02-15T00:13:03;77.45;;;59.38;;
46753;SDS011;32500;50.620;3.400;2023-02-15T00:15:28;78.90;;;59.58;;
46753;SDS011;32500;50.620;3.400;2023-02-15T00:17:56;81.88;;;60.88;;
46753;SDS011;32500;50.620;3.400;2023-02-15T00:20:22;81.45;;;59.90;;
46753;SDS011;32500;50.620;3.400;2023-02-15T00:22:47;80.03;;;60.72;;
46753;SDS011;32500;50.620;3.400;2023-02-15T00:25:13;81.03;;;60.63;;
46753;SDS011;32500;50.620;3.400;2023-02-15T00:27:39;80.35;;;60.55;;
46753;SDS011;32500;50.620;3.400;2023-02-15T00:30:04;80.75;;;60.35;;
46753;SDS011;32500;50.620;3.400;2023-02-15T00:32:31;80.57;;;60.72;;
46753;SDS011;32500;50.620;3.400;2023-02-15T00:34:57;78.55;;;59.17;;
46753;SDS011;32500;50.620;3.400;2023-02-15T00:37:22;77.93;;;59.88;;
46753;SDS011;32500;50.620;3.400;2023-02-15T00:39:48;81.72;;;60.95;;
46753;SDS011;32500;50.620;3.400;2023-02-15T00:42:14;78.80;;;59.22;;
46753;SDS011;32500;50.620;3.400;2023-02-15T00:44:39;78.22;;;59.55;;
46753;SDS011;32500;50.620;3.400;2023-02-15T00:47:05;77.22;;;60.08;;
46753;SDS011;32500;50.620;3.400;2023-02-15T00:49:30;78.07;;;59.75;;
46753;SDS011;32500;50.620;3.400;2023-02-15T00:51:56;77.45;;;59.72;;
46753;SDS011;32500;50.620;3.400;2023-02-15T00:54:21;77.45;;;60.03;;
46753;SDS011;32500;50.620;3.400;2023-02-15T00:56:47;78.25;;;59.28;;
46753;SDS011;32500;50.620;3.400;2023-02-15T00:59:13;79.45;;;59.50;;
46753;SDS011;32500;50.620;3.400;2023-02-15T01:01:39;79.78;;;59.55;;
46753;SDS011;32500;50.620;3.400;2023-02-15T01:04:05;78.57;;;58.92;;
46753;SDS011;32500;50.620;3.400;2023-02-15T01:06:30;76.75;;;59.75;;
46753;SDS011;32500;50.620;3.400;2023-02-15T01:08:56;77.47;;;59.53;;
46753;SDS011;32500;50.620;3.400;2023-02-15T01:11:22;76.78;;;59.85;;
46753;SDS011;32500;50.620;3.400;2023-02-15T01:13:52;78.63;;;59.28;;
46753;SDS011;32500;50.620;3.400;2023-02-15T01:16:19;78.07;;;58.83;;
46753;SDS011;32500;50.620;3.400;2023-02-15T01:18:45;77.65;;;58.53;;
46753;SDS011;32500;50.620;3.400;2023-02-15T01:21:15;76.95;;;59.22;;
46753;SDS011;32500;50.620;3.400;2023-02-15T01:23:43;79.63;;;59.83;;
46753;SDS011;32500;50.620;3.400;2023-02-15T01:26:09;77.88;;;59.97;;
46753;SDS011;32500;50.620;3.400;2023-02-15T01:28:35;79.57;;;60.20;;
46753;SDS011;32500;50.620;3.400;2023-02-15T01:31:05;75.10;;;58.63;;
46753;SDS011;32500;50.620;3.400;2023-02-15T01:33:35;75.53;;;58.83;;
46753;SDS011;32500;50.620;3.400;2023-02-15T01:36:01;81.28;;;60.00;;
46753;SDS011;32500;50.620;3.400;2023-02-15T01:38:28;77.63;;;59.45;;
46753;SDS011;32500;50.620;3.400;2023-02-15T01:40:54;79.57;;;59.78;;
46753;SDS011;32500;50.620;3.400;2023-02-15T01:43:43;79.45;;;59.47;;
46753;SDS011;32500;50.620;3.400;2023-02-15T01:46:15;78.43;;;58.88;;
46753;SDS011;32500;50.620;3.400;2023-02-15T01:48:50;75.40;;;59.13;;
46753;SDS011;32500;50.620;3.400;2023-02-15T01:51:21;77.03;;;59.70;;
46753;SDS011;32500;50.620;3.400;2023-02-15T01:53:51;77.85;;;58.85;;
46753;SDS011;32500;50.620;3.400;2023-02-15T01:56:23;80.18;;;60.15;;
46753;SDS011;32500;50.620;3.400;2023-02-15T01:58:53;76.80;;;59.53;;
46753;SDS011;32500;50.620;3.400;2023-02-15T02:01:20;76.28;;;59.22;;
46753;SDS011;32500;50.620;3.400;2023-02-15T02:03:56;78.03;;;58.42;;
46753;SDS011;32500;50.620;3.400;2023-02-15T02:06:30;75.93;;;58.97;;
46753;SDS011;32500;50.620;3.400;2023-02-15T02:08:58;76.63;;;59.15;;
46753;SDS011;32500;50.620;3.400;2023-02-15T02:11:25;77.30;;;58.83;;
46753;SDS011;32500;50.620;3.400;2023-02-15T02:13:51;75.55;;;58.60;;
46753;SDS011;32500;50.620;3.400;2023-02-15T02:16:25;75.18;;;58.33;;
46753;SDS011;32500;50.620;3.400;2023-02-15T02:21:52;77.70;;;59.08;;
46753;SDS011;32500;50.620;3.400;2023-02-15T02:37:59;75.43;;;59.35;;
46753;SDS011;32500;50.620;3.400;2023-02-15T02:46:00;77.15;;;59.42;;
46753;SDS011;32500;50.620;3.400;2023-02-15T02:48:32;75.53;;;58.40;;
46753;SDS011;32500;50.620;3.400;2023-02-15T02:50:59;76.45;;;59.22;;
46753;SDS011;32500;50.620;3.400;2023-02-15T02:53:25;76.82;;;58.97;;
46753;SDS011;32500;50.620;3.400;2023-02-15T02:55:55;82.65;;;59.70;;
46753;SDS011;32500;50.620;3.400;2023-02-15T03:01:30;75.28;;;58.80;;
46753;SDS011;32500;50.620;3.400;2023-02-15T03:04:12;76.18;;;58.58;;
46753;SDS011;32500;50.620;3.400;2023-02-15T03:06:54;76.05;;;59.03;;
46753;SDS011;32500;50.620;3.400;2023-02-15T03:12:06;76.05;;;58.65;;
46753;SDS011;32500;50.620;3.400;2023-02-15T03:14:34;76.25;;;58.13;;
46753;SDS011;32500;50.620;3.400;2023-02-15T03:17:00;77.15;;;58.58;;
46753;SDS011;32500;50.620;3.400;2023-02-15T03:19:32;78.00;;;59.15;;
46753;SDS011;32500;50.620;3.400;2023-02-15T03:22:03;76.90;;;58.65;;
46753;SDS011;32500;50.620;3.400;2023-02-15T03:24:37;78.20;;;59.30;;
46753;SDS011;32500;50.620;3.400;2023-02-15T03:27:11;77.53;;;59.20;;
46753;SDS011;32500;50.620;3.400;2023-02-15T03:29:43;76.00;;;58.47;;
46753;SDS011;32500;50.620;3.400;2023-02-15T03:32:15;76.03;;;58.65;;
46753;SDS011;32500;50.620;3.400;2023-02-15T03:34:42;74.40;;;57.47;;
46753;SDS011;32500;50.620;3.400;2023-02-15T03:40:21;72.30;;;57.47;;
46753;SDS011;32500;50.620;3.400;2023-02-15T03:43:16;74.20;;;58.25;;
46753;SDS011;32500;50.620;3.400;2023-02-15T03:45:52;77.20;;;58.65;;
46753;SDS011;32500;50.620;3.400;2023-02-15T03:48:26;76.55;;;58.47;;
46753;SDS011;32500;50.620;3.400;2023-02-15T03:50:55;76.50;;;57.95;;
46753;SDS011;32500;50.620;3.400;2023-02-15T03:53:43;79.03;;;59.70;;
46753;SDS011;32500;50.620;3.400;2023-02-15T03:56:11;76.93;;;58.00;;
46753;SDS011;32500;50.620;3.400;2023-02-15T03:58:36;76.65;;;59.92;;
46753;SDS011;32500;50.620;3.400;2023-02-15T04:04:16;73.43;;;57.78;;
46753;SDS011;32500;50.620;3.400;2023-02-15T04:06:44;76.20;;;58.55;;
46753;SDS011;32500;50.620;3.400;2023-02-15T04:09:09;74.10;;;57.25;;
46753;SDS011;32500;50.620;3.400;2023-02-15T04:11:53;75.45;;;58.75;;
46753;SDS011;32500;50.620;3.400;2023-02-15T04:14:19;75.93;;;58.10;;
46753;SDS011;32500;50.620;3.400;2023-02-15T04:17:06;77.60;;;58.10;;
46753;SDS011;32500;50.620;3.400;2023-02-15T04:19:33;80.38;;;60.00;;
46753;SDS011;32500;50.620;3.400;2023-02-15T04:22:17;79.38;;;57.78;;
46753;SDS011;32500;50.620;3.400;2023-02-15T04:25:01;78.72;;;58.85;;
46753;SDS011;32500;50.620;3.400;2023-02-15T04:27:37;75.93;;;57.92;;
46753;SDS011;32500;50.620;3.400;2023-02-15T04:30:04;75.72;;;57.75;;
46753;SDS011;32500;50.620;3.400;2023-02-15T04:32:31;78.95;;;58.03;;
46753;SDS011;32500;50.620;3.400;2023-02-15T04:34:57;74.40;;;58.30;;
46753;SDS011;32500;50.620;3.400;2023-02-15T04:37:22;74.75;;;57.33;;
46753;SDS011;32500;50.620;3.400;2023-02-15T04:39:48;76.60;;;58.20;;
46753;SDS011;32500;50.620;3.400;2023-02-15T04:42:14;75.03;;;58.28;;
46753;SDS011;32500;50.620;3.400;2023-02-15T04:44:40;76.97;;;57.08;;
46753;SDS011;32500;50.620;3.400;2023-02-15T04:47:06;77.43;;;58.38;;
46753;SDS011;32500;50.620;3.400;2023-02-15T04:49:31;78.97;;;59.15;;
46753;SDS011;32500;50.620;3.400;2023-02-15T04:51:57;74.90;;;57.33;;
46753;SDS011;32500;50.620;3.400;2023-02-15T04:54:23;76.05;;;58.22;;
46753;SDS011;32500;50.620;3.400;2023-02-15T04:56:48;76.07;;;58.08;;
46753;SDS011;32500;50.620;3.400;2023-02-15T04:59:14;76.45;;;56.65;;
46753;SDS011;32500;50.620;3.400;2023-02-15T05:01:40;76.22;;;58.08;;
46753;SDS011;32500;50.620;3.400;2023-02-15T05:04:06;75.18;;;57.60;;
46753;SDS011;32500;50.620;3.400;2023-02-15T05:06:32;75.72;;;57.90;;
46753;SDS011;32500;50.620;3.400;2023-02-15T05:08:58;78.38;;;58.30;;
46753;SDS011;32500;50.620;3.400;2023-02-15T05:11:24;73.97;;;58.10;;
46753;SDS011;32500;50.620;3.400;2023-02-15T05:13:50;76.65;;;57.13;;
46753;SDS011;32500;50.620;3.400;2023-02-15T05:16:16;77.10;;;58.28;;
46753;SDS011;32500;50.620;3.400;2023-02-15T05:18:42;78.75;;;58.00;;
46753;SDS011;32500;50.620;3.400;2023-02-15T05:21:07;75.28;;;57.28;;
46753;SDS011;32500;50.620;3.400;2023-02-15T05:23:33;75.68;;;58.13;;
46753;SDS011;32500;50.620;3.400;2023-02-15T05:25:59;75.10;;;57.40;;
46753;SDS011;32500;50.620;3.400;2023-02-15T05:28:43;78.40;;;57.75;;
46753;SDS011;32500;50.620;3.400;2023-02-15T05:31:13;76.63;;;57.63;;
46753;SDS011;32500;50.620;3.400;2023-02-15T05:33:41;76.97;;;57.95;;
46753;SDS011;32500;50.620;3.400;2023-02-15T05:36:07;75.90;;;58.42;;
46753;SDS011;32500;50.620;3.400;2023-02-15T05:38:34;76.40;;;57.33;;
46753;SDS011;32500;50.620;3.400;2023-02-15T05:41:01;74.90;;;57.42;;
46753;SDS011;32500;50.620;3.400;2023-02-15T05:43:27;74.85;;;57.75;;
46753;SDS011;32500;50.620;3.400;2023-02-15T05:45:53;78.00;;;57.88;;
46753;SDS011;32500;50.620;3.400;2023-02-15T05:48:20;75.20;;;57.92;;
46753;SDS011;32500;50.620;3.400;2023-02-15T05:50:56;78.82;;;57.83;;
46753;SDS011;32500;50.620;3.400;2023-02-15T05:53:33;75.13;;;57.63;;
46753;SDS011;32500;50.620;3.400;2023-02-15T05:56:01;78.72;;;58.08;;
46753;SDS011;32500;50.620;3.400;2023-02-15T05:58:31;77.85;;;57.35;;
46753;SDS011;32500;50.620;3.400;2023-02-15T06:01:06;78.63;;;58.03;;
46753;SDS011;32500;50.620;3.400;2023-02-15T06:03:33;77.82;;;58.50;;
46753;SDS011;32500;50.620;3.400;2023-02-15T06:05:59;80.70;;;58.55;;
46753;SDS011;32500;50.620;3.400;2023-02-15T06:08:24;80.07;;;59.50;;
46753;SDS011;32500;50.620;3.400;2023-02-15T06:10:50;74.88;;;58.83;;
46753;SDS011;32500;50.620;3.400;2023-02-15T06:13:16;74.68;;;57.88;;
46753;SDS011;32500;50.620;3.400;2023-02-15T06:15:41;76.38;;;57.72;;
46753;SDS011;32500;50.620;3.400;2023-02-15T06:18:07;75.28;;;58.03;;
46753;SDS011;32500;50.620;3.400;2023-02-15T06:20:33;76.30;;;58.30;;
46753;SDS011;32500;50.620;3.400;2023-02-15T06:22:58;79.20;;;58.88;;
46753;SDS011;32500;50.620;3.400;2023-02-15T06:25:24;75.30;;;57.35;;
46753;SDS011;32500;50.620;3.400;2023-02-15T06:27:50;81.45;;;57.53;;
46753;SDS011;32500;50.620;3.400;2023-02-15T06:30:15;76.22;;;57.55;;
46753;SDS011;32500;50.620;3.400;2023-02-15T06:32:41;76.38;;;57.80;;
46753;SDS011;32500;50.620;3.400;2023-02-15T06:35:07;74.93;;;57.22;;
46753;SDS011;32500;50.620;3.400;2023-02-15T06:37:33;75.80;;;56.90;;
46753;SDS011;32500;50.620;3.400;2023-02-15T06:39:58;77.53;;;57.60;;
46753;SDS011;32500;50.620;3.400;2023-02-15T06:42:24;79.07;;;57.95;;
46753;SDS011;32500;50.620;3.400;2023-02-15T06:44:50;77.53;;;58.03;;
46753;SDS011;32500;50.620;3.400;2023-02-15T06:47:15;74.10;;;57.50;;
46753;SDS011;32500;50.620;3.400;2023-02-15T06:49:41;81.93;;;60.88;;
46753;SDS011;32500;50.620;3.400;2023-02-15T06:52:07;82.70;;;60.80;;
46753;SDS011;32500;50.620;3.400;2023-02-15T06:54:32;79.03;;;58.83;;
46753;SDS011;32500;50.620;3.400;2023-02-15T06:56:58;79.93;;;59.90;;
46753;SDS011;32500;50.620;3.400;2023-02-15T06:59:23;75.85;;;58.47;;
46753;SDS011;32500;50.620;3.400;2023-02-15T07:01:49;79.22;;;58.55;;
46753;SDS011;32500;50.620;3.400;2023-02-15T07:04:15;76.93;;;58.60;;
46753;SDS011;32500;50.620;3.400;2023-02-15T07:06:40;79.78;;;59.33;;
46753;SDS011;32500;50.620;3.400;2023-02-15T07:09:06;79.60;;;60.58;;
46753;SDS011;32500;50.620;3.400;2023-02-15T07:11:32;81.45;;;61.72;;
46753;SDS011;32500;50.620;3.400;2023-02-15T07:14:16;81.88;;;60.80;;
46753;SDS011;32500;50.620;3.400;2023-02-15T07:16:42;82.07;;;62.17;;
46753;SDS011;32500;50.620;3.400;2023-02-15T07:19:08;80.85;;;61.05;;
46753;SDS011;32500;50.620;3.400;2023-02-15T07:21:34;78.28;;;59.70;;
46753;SDS011;32500;50.620;3.400;2023-02-15T07:24:00;77.00;;;58.65;;
46753;SDS011;32500;50.620;3.400;2023-02-15T07:26:26;78.40;;;59.30;;
46753;SDS011;32500;50.620;3.400;2023-02-15T07:28:52;81.20;;;59.13;;
46753;SDS011;32500;50.620;3.400;2023-02-15T07:31:17;80.50;;;59.78;;
46753;SDS011;32500;50.620;3.400;2023-02-15T07:33:43;85.00;;;59.28;;
46753;SDS011;32500;50.620;3.400;2023-02-15T07:36:09;83.50;;;58.75;;
46753;SDS011;32500;50.620;3.400;2023-02-15T07:38:37;82.57;;;58.83;;
46753;SDS011;32500;50.620;3.400;2023-02-15T07:41:05;79.78;;;58.90;;
46753;SDS011;32500;50.620;3.400;2023-02-15T07:43:33;81.07;;;59.17;;
46753;SDS011;32500;50.620;3.400;2023-02-15T07:46:01;80.78;;;58.42;;
46753;SDS011;32500;50.620;3.400;2023-02-15T07:48:28;77.40;;;58.90;;
46753;SDS011;32500;50.620;3.400;2023-02-15T07:50:54;77.10;;;58.17;;
46753;SDS011;32500;50.620;3.400;2023-02-15T07:53:23;80.13;;;59.00;;
46753;SDS011;32500;50.620;3.400;2023-02-15T07:55:49;81.32;;;59.47;;
46753;SDS011;32500;50.620;3.400;2023-02-15T07:58:14;76.50;;;57.28;;
46753;SDS011;32500;50.620;3.400;2023-02-15T08:00:40;79.97;;;59.08;;
46753;SDS011;32500;50.620;3.400;2023-02-15T08:03:26;78.80;;;59.13;;
46753;SDS011;32500;50.620;3.400;2023-02-15T08:05:57;78.45;;;58.92;;
46753;SDS011;32500;50.620;3.400;2023-02-15T08:08:24;77.65;;;58.22;;
46753;SDS011;32500;50.620;3.400;2023-02-15T08:10:57;78.28;;;57.85;;
46753;SDS011;32500;50.620;3.400;2023-02-15T08:13:43;77.30;;;57.83;;
46753;SDS011;32500;50.620;3.400;2023-02-15T08:18:58;79.80;;;58.17;;
46753;SDS011;32500;50.620;3.400;2023-02-15T08:21:26;79.22;;;58.58;;
46753;SDS011;32500;50.620;3.400;2023-02-15T08:23:54;78.25;;;58.17;;
46753;SDS011;32500;50.620;3.400;2023-02-15T08:26:22;78.15;;;57.55;;
46753;SDS011;32500;50.620;3.400;2023-02-15T08:28:48;80.35;;;57.78;;
46753;SDS011;32500;50.620;3.400;2023-02-15T08:31:16;78.95;;;59.00;;
46753;SDS011;32500;50.620;3.400;2023-02-15T08:33:43;78.15;;;57.63;;
46753;SDS011;32500;50.620;3.400;2023-02-15T08:36:10;78.00;;;58.47;;
46753;SDS011;32500;50.620;3.400;2023-02-15T08:38:38;77.43;;;56.92;;
46753;SDS011;32500;50.620;3.400;2023-02-15T08:41:09;79.13;;;57.28;;
46753;SDS011;32500;50.620;3.400;2023-02-15T08:43:42;76.03;;;57.15;;
46753;SDS011;32500;50.620;3.400;2023-02-15T08:46:08;78.18;;;57.92;;
46753;SDS011;32500;50.620;3.400;2023-02-15T08:48:36;78.15;;;58.50;;
46753;SDS011;32500;50.620;3.400;2023-02-15T08:51:12;78.10;;;57.38;;
46753;SDS011;32500;50.620;3.400;2023-02-15T08:53:40;79.32;;;57.88;;
46753;SDS011;32500;50.620;3.400;2023-02-15T08:56:09;78.45;;;57.33;;
46753;SDS011;32500;50.620;3.400;2023-02-15T08:58:35;74.80;;;56.40;;
46753;SDS011;32500;50.620;3.400;2023-02-15T09:01:01;79.35;;;58.10;;
46753;SDS011;32500;50.620;3.400;2023-02-15T09:03:32;77.75;;;56.78;;
46753;SDS011;32500;50.620;3.400;2023-02-15T09:05:59;78.78;;;56.58;;
46753;SDS011;32500;50.620;3.400;2023-02-15T09:08:26;77.90;;;58.10;;
46753;SDS011;32500;50.620;3.400;2023-02-15T09:10:53;80.35;;;58.17;;
46753;SDS011;32500;50.620;3.400;2023-02-15T09:13:19;77.55;;;57.05;;
46753;SDS011;32500;50.620;3.400;2023-02-15T09:15:46;74.95;;;56.97;;
46753;SDS011;32500;50.620;3.400;2023-02-15T09:18:12;79.45;;;58.13;;
46753;SDS011;32500;50.620;3.400;2023-02-15T09:20:42;79.10;;;58.30;;
46753;SDS011;32500;50.620;3.400;2023-02-15T09:23:09;76.45;;;56.78;;
46753;SDS011;32500;50.620;3.400;2023-02-15T09:25:35;78.18;;;57.22;;
46753;SDS011;32500;50.620;3.400;2023-02-15T09:28:00;74.53;;;56.95;;
46753;SDS011;32500;50.620;3.400;2023-02-15T09:30:26;77.70;;;57.05;;
46753;SDS011;32500;50.620;3.400;2023-02-15T09:32:52;75.88;;;56.17;;
46753;SDS011;32500;50.620;3.400;2023-02-15T09:35:17;76.85;;;57.15;;
46753;SDS011;32500;50.620;3.400;2023-02-15T09:37:43;76.95;;;56.85;;
46753;SDS011;32500;50.620;3.400;2023-02-15T09:40:10;77.03;;;56.13;;
46753;SDS011;32500;50.620;3.400;2023-02-15T09:45:33;79.72;;;57.45;;
46753;SDS011;32500;50.620;3.400;2023-02-15T09:53:38;78.55;;;57.50;;
46753;SDS011;32500;50.620;3.400;2023-02-15T09:56:32;77.75;;;57.15;;
46753;SDS011;32500;50.620;3.400;2023-02-15T09:59:15;78.05;;;57.65;;
46753;SDS011;32500;50.620;3.400;2023-02-15T10:11:06;78.07;;;56.35;;
46753;SDS011;32500;50.620;3.400;2023-02-15T10:14:15;76.03;;;56.45;;
46753;SDS011;32500;50.620;3.400;2023-02-15T10:19:35;77.30;;;57.20;;
46753;SDS011;32500;50.620;3.400;2023-02-15T10:22:10;76.78;;;56.97;;
46753;SDS011;32500;50.620;3.400;2023-02-15T10:27:37;80.75;;;56.95;;
46753;SDS011;32500;50.620;3.400;2023-02-15T10:52:09;76.20;;;56.08;;
46753;SDS011;32500;50.620;3.400;2023-02-15T11:02:45;77.97;;;57.20;;
46753;SDS011;32500;50.620;3.400;2023-02-15T11:08:06;75.38;;;56.03;;
46753;SDS011;32500;50.620;3.400;2023-02-15T11:13:10;76.53;;;56.78;;
46753;SDS011;32500;50.620;3.400;2023-02-15T11:21:02;78.53;;;56.13;;
46753;SDS011;32500;50.620;3.400;2023-02-15T11:23:45;78.13;;;56.65;;
46753;SDS011;32500;50.620;3.400;2023-02-15T11:26:27;76.60;;;56.53;;
46753;SDS011;32500;50.620;3.400;2023-02-15T11:28:59;78.43;;;56.50;;
46753;SDS011;32500;50.620;3.400;2023-02-15T11:31:41;76.97;;;56.20;;
46753;SDS011;32500;50.620;3.400;2023-02-15T11:34:21;78.50;;;56.40;;
46753;SDS011;32500;50.620;3.400;2023-02-15T11:37:07;75.57;;;56.33;;
46753;SDS011;32500;50.620;3.400;2023-02-15T11:39:39;76.20;;;55.95;;
46753;SDS011;32500;50.620;3.400;2023-02-15T11:42:15;75.70;;;55.97;;
46753;SDS011;32500;50.620;3.400;2023-02-15T11:44:56;85.38;;;57.20;;
46753;SDS011;32500;50.620;3.400;2023-02-15T11:47:26;78.82;;;56.63;;
46753;SDS011;32500;50.620;3.400;2023-02-15T11:49:53;78.38;;;57.50;;
46753;SDS011;32500;50.620;3.400;2023-02-15T11:52:19;77.32;;;56.22;;
46753;SDS011;32500;50.620;3.400;2023-02-15T11:54:46;78.07;;;56.63;;
46753;SDS011;32500;50.620;3.400;2023-02-15T11:57:23;79.47;;;57.38;;
46753;SDS011;32500;50.620;3.400;2023-02-15T12:00:12;76.88;;;55.95;;
46753;SDS011;32500;50.620;3.400;2023-02-15T12:02:50;76.85;;;56.30;;
46753;SDS011;32500;50.620;3.400;2023-02-15T12:05:19;78.43;;;56.55;;
46753;SDS011;32500;50.620;3.400;2023-02-15T12:07:50;79.63;;;56.30;;
46753;SDS011;32500;50.620;3.400;2023-02-15T12:10:22;77.05;;;56.10;;
46753;SDS011;32500;50.620;3.400;2023-02-15T12:13:07;76.57;;;55.90;;
46753;SDS011;32500;50.620;3.400;2023-02-15T12:15:40;77.05;;;56.10;;
46753;SDS011;32500;50.620;3.400;2023-02-15T12:21:12;75.57;;;55.28;;
46753;SDS011;32500;50.620;3.400;2023-02-15T12:23:48;74.95;;;54.05;;
46753;SDS011;32500;50.620;3.400;2023-02-15T12:26:23;77.03;;;55.15;;
46753;SDS011;32500;50.620;3.400;2023-02-15T12:28:50;77.60;;;55.80;;
46753;SDS011;32500;50.620;3.400;2023-02-15T12:31:23;75.70;;;56.20;;
46753;SDS011;32500;50.620;3.400;2023-02-15T12:33:53;78.65;;;56.95;;
46753;SDS011;32500;50.620;3.400;2023-02-15T12:36:27;76.03;;;55.83;;
46753;SDS011;32500;50.620;3.400;2023-02-15T12:41:38;79.93;;;58.22;;
46753;SDS011;32500;50.620;3.400;2023-02-15T12:44:19;79.18;;;57.92;;
46753;SDS011;32500;50.620;3.400;2023-02-15T12:46:59;81.20;;;58.33;;
46753;SDS011;32500;50.620;3.400;2023-02-15T12:49:31;84.78;;;58.00;;
46753;SDS011;32500;50.620;3.400;2023-02-15T12:51:58;80.25;;;58.13;;
46753;SDS011;32500;50.620;3.400;2023-02-15T12:56:57;78.25;;;56.60;;
46753;SDS011;32500;50.620;3.400;2023-02-15T12:59:23;79.25;;;57.67;;
46753;SDS011;32500;50.620;3.400;2023-02-15T13:01:51;78.38;;;56.58;;
46753;SDS011;32500;50.620;3.400;2023-02-15T13:04:27;78.30;;;57.67;;
46753;SDS011;32500;50.620;3.400;2023-02-15T13:06:58;77.55;;;56.28;;
46753;SDS011;32500;50.620;3.400;2023-02-15T13:12:09;80.55;;;58.42;;
46753;SDS011;32500;50.620;3.400;2023-02-15T13:14:35;80.57;;;57.30;;
46753;SDS011;32500;50.620;3.400;2023-02-15T13:17:03;80.90;;;56.95;;
46753;SDS011;32500;50.620;3.400;2023-02-15T13:19:36;79.30;;;56.65;;
46753;SDS011;32500;50.620;3.400;2023-02-15T13:22:07;77.53;;;56.15;;
46753;SDS011;32500;50.620;3.400;2023-02-15T13:24:58;80.07;;;57.58;;
46753;SDS011;32500;50.620;3.400;2023-02-15T13:27:38;76.10;;;55.97;;
46753;SDS011;32500;50.620;3.400;2023-02-15T13:30:25;79.72;;;57.45;;
46753;SDS011;32500;50.620;3.400;2023-02-15T13:32:58;78.40;;;56.15;;
46753;SDS011;32500;50.620;3.400;2023-02-15T13:35:39;83.50;;;58.95;;
46753;SDS011;32500;50.620;3.400;2023-02-15T13:40:53;82.93;;;58.30;;
46753;SDS011;32500;50.620;3.400;2023-02-15T13:48:55;80.93;;;57.80;;
46753;SDS011;32500;50.620;3.400;2023-02-15T13:53:54;81.45;;;58.90;;
46753;SDS011;32500;50.620;3.400;2023-02-15T13:56:44;79.55;;;57.38;;
46753;SDS011;32500;50.620;3.400;2023-02-15T14:15:13;80.10;;;56.03;;
46753;SDS011;32500;50.620;3.400;2023-02-15T14:29:02;77.07;;;55.05;;
46753;SDS011;32500;50.620;3.400;2023-02-15T14:31:56;80.45;;;57.13;;
46753;SDS011;32500;50.620;3.400;2023-02-15T14:34:30;83.07;;;58.70;;
46753;SDS011;32500;50.620;3.400;2023-02-15T14:37:09;79.15;;;56.80;;
46753;SDS011;32500;50.620;3.400;2023-02-15T14:39:43;81.57;;;57.50;;
46753;SDS011;32500;50.620;3.400;2023-02-15T14:42:50;86.82;;;60.78;;
46753;SDS011;32500;50.620;3.400;2023-02-15T14:45:26;83.78;;;60.13;;
46753;SDS011;32500;50.620;3.400;2023-02-15T14:48:10;87.70;;;61.20;;
46753;SDS011;32500;50.620;3.400;2023-02-15T14:50:41;84.53;;;60.38;;
46753;SDS011;32500;50.620;3.400;2023-02-15T15:01:26;85.75;;;61.03;;
46753;SDS011;32500;50.620;3.400;2023-02-15T15:04:22;84.35;;;60.88;;
46753;SDS011;32500;50.620;3.400;2023-02-15T15:07:08;86.38;;;60.45;;
46753;SDS011;32500;50.620;3.400;2023-02-15T15:09:36;81.77;;;58.90;;
46753;SDS011;32500;50.620;3.400;2023-02-15T15:12:47;84.13;;;58.72;;
46753;SDS011;32500;50.620;3.400;2023-02-15T15:14:59;81.15;;;58.78;;
46753;SDS011;32500;50.620;3.400;2023-02-15T15:22:26;82.80;;;58.75;;
46753;SDS011;32500;50.620;3.400;2023-02-15T15:24:54;83.57;;;58.72;;
46753;SDS011;32500;50.620;3.400;2023-02-15T15:49:58;80.40;;;57.25;;
46753;SDS011;32500;50.620;3.400;2023-02-15T15:52:24;86.78;;;59.72;;
46753;SDS011;32500;50.620;3.400;2023-02-15T15:54:56;80.13;;;58.20;;
46753;SDS011;32500;50.620;3.400;2023-02-15T15:59:57;84.35;;;60.42;;
46753;SDS011;32500;50.620;3.400;2023-02-15T16:02:26;87.03;;;59.88;;
46753;SDS011;32500;50.620;3.400;2023-02-15T16:04:52;84.70;;;59.40;;
46753;SDS011;32500;50.620;3.400;2023-02-15T16:12:27;83.68;;;59.88;;
46753;SDS011;32500;50.620;3.400;2023-02-15T16:14:54;84.75;;;60.20;;
46753;SDS011;32500;50.620;3.400;2023-02-15T16:17:25;84.68;;;59.47;;
46753;SDS011;32500;50.620;3.400;2023-02-15T16:19:59;81.88;;;58.15;;
46753;SDS011;32500;50.620;3.400;2023-02-15T16:22:46;81.72;;;58.47;;
46753;SDS011;32500;50.620;3.400;2023-02-15T16:27:53;90.28;;;63.00;;
46753;SDS011;32500;50.620;3.400;2023-02-15T16:30:26;89.00;;;61.60;;
46753;SDS011;32500;50.620;3.400;2023-02-15T16:33:03;86.68;;;60.83;;
46753;SDS011;32500;50.620;3.400;2023-02-15T16:38:01;85.70;;;60.58;;
46753;SDS011;32500;50.620;3.400;2023-02-15T16:43:20;81.45;;;58.92;;
46753;SDS011;32500;50.620;3.400;2023-02-15T16:48:18;82.85;;;59.58;;
46753;SDS011;32500;50.620;3.400;2023-02-15T16:50:51;86.93;;;61.10;;
46753;SDS011;32500;50.620;3.400;2023-02-15T16:53:21;90.45;;;60.50;;
46753;SDS011;32500;50.620;3.400;2023-02-15T16:55:50;83.90;;;60.60;;
46753;SDS011;32500;50.620;3.400;2023-02-15T17:01:07;84.57;;;59.63;;
46753;SDS011;32500;50.620;3.400;2023-02-15T17:03:35;83.68;;;58.28;;
46753;SDS011;32500;50.620;3.400;2023-02-15T17:06:02;84.28;;;59.50;;
46753;SDS011;32500;50.620;3.400;2023-02-15T17:11:14;86.13;;;59.20;;
46753;SDS011;32500;50.620;3.400;2023-02-15T17:16:36;86.05;;;59.75;;
46753;SDS011;32500;50.620;3.400;2023-02-15T17:19:33;85.05;;;58.97;;
46753;SDS011;32500;50.620;3.400;2023-02-15T17:22:16;87.18;;;59.53;;
46753;SDS011;32500;50.620;3.400;2023-02-15T17:24:47;86.43;;;59.70;;
46753;SDS011;32500;50.620;3.400;2023-02-15T17:27:19;89.22;;;60.17;;
46753;SDS011;32500;50.620;3.400;2023-02-15T17:29:50;86.10;;;59.55;;
46753;SDS011;32500;50.620;3.400;2023-02-15T17:32:24;82.65;;;60.13;;
46753;SDS011;32500;50.620;3.400;2023-02-15T17:34:59;81.55;;;59.17;;
46753;SDS011;32500;50.620;3.400;2023-02-15T17:40:07;85.90;;;60.50;;
46753;SDS011;32500;50.620;3.400;2023-02-15T17:42:50;83.82;;;58.90;;
46753;SDS011;32500;50.620;3.400;2023-02-15T17:45:17;87.30;;;59.60;;
46753;SDS011;32500;50.620;3.400;2023-02-15T17:47:43;85.18;;;59.28;;
46753;SDS011;32500;50.620;3.400;2023-02-15T17:50:15;85.75;;;60.60;;
46753;SDS011;32500;50.620;3.400;2023-02-15T17:52:46;84.32;;;59.67;;
46753;SDS011;32500;50.620;3.400;2023-02-15T17:55:13;89.28;;;60.22;;
46753;SDS011;32500;50.620;3.400;2023-02-15T17:57:59;83.75;;;60.25;;
46753;SDS011;32500;50.620;3.400;2023-02-15T18:00:25;84.15;;;59.25;;
46753;SDS011;32500;50.620;3.400;2023-02-15T18:03:10;84.80;;;61.05;;
46753;SDS011;32500;50.620;3.400;2023-02-15T18:05:55;83.63;;;59.45;;
46753;SDS011;32500;50.620;3.400;2023-02-15T18:08:40;82.70;;;59.22;;
46753;SDS011;32500;50.620;3.400;2023-02-15T18:11:25;82.40;;;59.95;;
46753;SDS011;32500;50.620;3.400;2023-02-15T18:14:00;82.50;;;58.83;;
46753;SDS011;32500;50.620;3.400;2023-02-15T18:16:31;85.78;;;60.67;;